Time;durP1;ratioP1;P1;durP2;ratioP2;P2;SDS_P1;SDS_P2;PMS_P1;PMS_P2;Temp;Humidity;BMP_temperature;BMP_pressure;BME280_temperature;BME280_humidity;BME280_pressure;Samples;Min_cycle;Max_cycle;Signal;HPM_P1;HPM_P2
2022/05/20 00:02:15;;;;;;;6.35;4.70;;;14.10;99.90;;;;;;7400406;19;20502;-63
2022/05/20 00:04:46;;;;;;;7.35;5.15;;;13.80;99.90;;;;;;7402823;19;20078;-63
2022/05/20 00:07:15;;;;;;;6.85;4.47;;;13.80;99.90;;;;;;7401856;19;20014;-63
2022/05/20 00:09:44;;;;;;;7.90;4.30;;;13.80;99.90;;;;;;7401995;19;20022;-63
2022/05/20 00:12:14;;;;;;;6.85;4.50;;;13.80;99.90;;;;;;7397652;19;20077;-63
2022/05/20 00:14:43;;;;;;;6.22;4.00;;;13.80;99.90;;;;;;7397597;19;20018;-63
2022/05/20 00:17:12;;;;;;;7.05;3.88;;;13.80;99.90;;;;;;7397936;19;20011;-63
2022/05/20 00:19:41;;;;;;;8.20;4.40;;;;;;;;;;7400011;19;20022;-64
2022/05/20 00:22:12;;;;;;;8.38;4.60;;;13.90;99.90;;;;;;7402428;19;20010;-63
2022/05/20 00:25:45;;;;;;;7.72;4.97;;;13.80;99.90;;;;;;7400438;19;20482;-63
2022/05/20 00:27:31;;;;;;;8.15;4.88;;;13.90;99.90;;;;;;7399038;19;20019;-63
2022/05/20 00:30:00;;;;;;;8.40;5.07;;;13.80;99.90;;;;;;7400265;19;20026;-63
2022/05/20 00:32:29;;;;;;;7.82;5.22;;;13.80;99.90;;;;;;7395988;19;20356;-63
2022/05/20 00:34:59;;;;;;;6.85;5.18;;;13.80;99.90;;;;;;7400508;19;20014;-63
2022/05/20 00:37:30;;;;;;;7.47;4.93;;;14.00;99.90;;;;;;7399772;19;20023;-63
2022/05/20 00:39:59;;;;;;;9.27;5.60;;;13.90;99.90;;;;;;7401546;19;20022;-63
2022/05/20 00:42:28;;;;;;;10.23;6.03;;;14.10;99.90;;;;;;7397680;19;20052;-63
2022/05/20 00:44:57;;;;;;;7.13;6.18;;;13.90;99.90;;;;;;7399294;19;20018;-63
2022/05/20 00:47:26;;;;;;;7.68;5.50;;;13.80;99.90;;;;;;7397514;19;20038;-63
2022/05/20 00:49:58;;;;;;;8.75;6.25;;;13.80;99.90;;;;;;7401893;19;20465;-63
2022/05/20 00:52:34;;;;;;;7.55;5.43;;;13.70;99.90;;;;;;7396010;19;20017;-63
2022/05/20 00:55:05;;;;;;;;;;;13.70;99.90;;;;;;7398765;19;20157;-63
2022/05/20 00:57:38;;;;;;;7.13;5.60;;;13.50;99.90;;;;;;7398130;19;19978;-63
2022/05/20 01:00:10;;;;;;;9.25;5.72;;;13.40;99.90;;;;;;7398115;19;20010;-63
2022/05/20 01:02:40;;;;;;;10.00;5.63;;;13.50;99.90;;;;;;7399335;19;20019;-63
2022/05/20 01:05:27;;;;;;;9.10;5.45;;;13.50;99.90;;;;;;7396096;19;20010;-63
2022/05/20 01:08:00;;;;;;;10.52;5.75;;;13.40;99.90;;;;;;7398095;19;20388;-63
2022/05/20 01:10:29;;;;;;;8.75;5.88;;;13.40;99.90;;;;;;7398835;19;20082;-63
2022/05/20 01:13:00;;;;;;;11.10;5.68;;;13.40;99.90;;;;;;7397918;19;20022;-63
2022/05/20 01:15:30;;;;;;;9.77;5.97;;;13.30;99.90;;;;;;7399630;19;20442;-63
2022/05/20 01:18:00;;;;;;;8.63;5.47;;;13.40;99.90;;;;;;7396843;19;20505;-63
2022/05/20 01:20:32;;;;;;;11.45;6.43;;;13.40;99.90;;;;;;7395284;19;20028;-63
2022/05/20 01:23:11;;;;;;;12.20;5.63;;;13.30;99.90;;;;;;7398395;19;20030;-63
2022/05/20 01:25:43;;;;;;;8.77;5.90;;;13.50;99.90;;;;;;7398594;19;20035;-63
2022/05/20 01:28:13;;;;;;;9.85;6.53;;;13.20;99.90;;;;;;7398219;19;20014;-63
2022/05/20 01:30:46;;;;;;;11.63;5.63;;;13.30;99.90;;;;;;7392244;19;20029;-63
2022/05/20 01:33:22;;;;;;;11.27;6.40;;;13.30;99.90;;;;;;7398086;19;20086;-63
2022/05/20 01:35:51;;;;;;;8.75;6.40;;;13.30;99.90;;;;;;7399168;19;20026;-63
2022/05/20 01:38:23;;;;;;;8.13;6.72;;;13.40;99.90;;;;;;7395505;19;20011;-63
2022/05/20 01:40:55;;;;;;;10.15;7.00;;;13.40;99.90;;;;;;7397273;19;20363;-63
2022/05/20 01:43:53;;;;;;;11.48;7.15;;;13.30;99.90;;;;;;7396584;19;20032;-63
2022/05/20 01:46:30;;;;;;;12.85;7.50;;;13.40;99.90;;;;;;7397818;19;20483;-63
2022/05/20 01:49:14;;;;;;;11.93;7.35;;;13.20;99.90;;;;;;7397090;19;20366;-63
2022/05/20 01:51:51;;;;;;;11.70;7.47;;;13.30;99.90;;;;;;7397618;19;20044;-63
2022/05/20 01:54:30;;;;;;;11.85;7.72;;;12.90;99.90;;;;;;7397555;19;20039;-63
2022/05/20 01:57:06;;;;;;;13.15;7.38;;;13.10;99.90;;;;;;7397047;19;20014;-63
2022/05/20 01:59:41;;;;;;;12.30;7.55;;;13.10;99.90;;;;;;7394394;19;20010;-63
2022/05/20 02:02:15;;;;;;;13.57;7.20;;;13.10;99.90;;;;;;7397901;19;20077;-63
2022/05/20 02:04:49;;;;;;;11.05;7.43;;;13.10;99.90;;;;;;7395695;19;20011;-63
2022/05/20 02:07:24;;;;;;;12.63;7.97;;;13.00;99.90;;;;;;7394618;19;20077;-63
2022/05/20 02:09:59;;;;;;;10.68;7.30;;;13.00;99.90;;;;;;7395813;19;20381;-64
2022/05/20 02:12:33;;;;;;;12.63;7.78;;;13.00;99.90;;;;;;7398493;19;20019;-63
2022/05/20 02:15:07;;;;;;;9.70;7.72;;;13.10;99.90;;;;;;7057822;19;5011758;-63
2022/05/20 02:17:38;;;;;;;13.65;8.10;;;13.00;99.90;;;;;;7394121;19;20022;-63
2022/05/20 02:20:11;;;;;;;10.80;7.38;;;13.00;99.90;;;;;;7392337;19;20403;-63
2022/05/20 02:22:44;;;;;;;13.93;8.25;;;12.90;99.90;;;;;;7397864;19;20372;-63
2022/05/20 02:25:20;;;;;;;12.68;7.88;;;12.90;99.90;;;;;;7391844;19;20023;-63
2022/05/20 02:27:54;;;;;;;10.30;7.82;;;12.90;99.90;;;;;;7396043;19;20019;-63
2022/05/20 02:30:29;;;;;;;15.00;8.02;;;12.80;99.90;;;;;;7397776;19;20018;-63
2022/05/20 02:33:03;;;;;;;10.60;7.88;;;12.80;99.90;;;;;;7394803;19;20489;-63
2022/05/20 02:35:32;;;;;;;11.25;7.57;;;;;;;;;;7394179;19;20027;-63
2022/05/20 02:38:07;;;;;;;13.35;8.30;;;12.70;99.90;;;;;;7396732;19;20024;-63
2022/05/20 02:40:40;;;;;;;11.80;7.90;;;13.00;99.90;;;;;;7394808;19;20327;-63
2022/05/20 02:43:09;;;;;;;12.75;8.02;;;12.70;99.90;;;;;;7394372;19;20722;-63
2022/05/20 02:45:39;;;;;;;14.95;7.35;;;12.80;99.90;;;;;;7392958;19;20022;-63
2022/05/20 02:48:09;;;;;;;13.05;7.43;;;12.70;99.90;;;;;;7395093;19;20024;-63
2022/05/20 02:50:38;;;;;;;11.73;7.85;;;12.70;99.90;;;;;;7394252;19;20026;-63
2022/05/20 02:53:07;;;;;;;10.93;8.20;;;12.80;99.90;;;;;;7396237;19;20022;-63
2022/05/20 02:55:36;;;;;;;14.38;8.07;;;;;;;;;;7391212;19;20026;-63
2022/05/20 03:04:09;;;;;;;11.60;8.07;;;12.70;99.90;;;;;;7396253;19;20010;-63
2022/05/20 03:06:34;;;;;;;12.77;8.47;;;12.60;99.90;;;;;;7393599;19;20018;-63
2022/05/20 03:09:03;;;;;;;12.82;8.05;;;12.70;99.90;;;;;;7393764;19;20009;-63
2022/05/20 03:11:32;;;;;;;11.65;8.50;;;12.60;99.90;;;;;;7394252;19;20019;-63
2022/05/20 03:14:04;;;;;;;11.07;8.02;;;13.00;99.90;;;;;;7393412;19;20014;-63
2022/05/20 03:16:32;;;;;;;12.98;9.05;;;12.60;99.90;;;;;;7393166;19;20014;-63
2022/05/20 03:19:02;;;;;;;11.98;9.02;;;12.70;99.90;;;;;;7391670;19;20014;-63
2022/05/20 03:21:31;;;;;;;13.68;9.40;;;12.60;99.90;;;;;;7393788;19;20382;-63
2022/05/20 03:24:02;;;;;;;12.43;9.18;;;12.50;99.90;;;;;;7390936;19;20015;-63
2022/05/20 03:26:32;;;;;;;9.20;8.18;;;12.40;99.90;;;;;;7394712;19;20450;-63
2022/05/20 03:29:04;;;;;;;12.32;8.60;;;12.60;99.90;;;;;;7394389;19;20022;-63
2022/05/20 03:31:36;;;;;;;11.55;7.90;;;12.30;99.90;;;;;;7393641;19;20006;-63
2022/05/20 03:34:08;;;;;;;14.90;7.88;;;12.60;99.90;;;;;;7388497;19;20624;-63
2022/05/20 03:36:38;;;;;;;10.38;8.63;;;12.50;99.90;;;;;;7392825;19;20010;-63
2022/05/20 03:39:08;;;;;;;13.27;8.43;;;12.30;99.90;;;;;;7391017;19;20019;-63
2022/05/20 03:41:37;;;;;;;12.13;8.05;;;12.40;99.90;;;;;;7392641;19;20368;-63
2022/05/20 03:44:11;;;;;;;12.60;8.07;;;12.30;99.90;;;;;;7393650;19;20014;-63
2022/05/20 03:46:46;;;;;;;11.95;8.40;;;12.80;99.90;;;;;;7392715;19;20014;-63
2022/05/20 03:49:16;;;;;;;11.95;8.30;;;12.30;99.90;;;;;;7392431;19;20666;-63
2022/05/20 03:51:45;;;;;;;14.23;8.60;;;12.30;99.90;;;;;;7392680;19;20025;-63
2022/05/20 03:54:15;;;;;;;12.52;8.95;;;12.30;99.90;;;;;;7390145;19;20011;-64
2022/05/20 03:56:44;;;;;;;12.48;8.45;;;12.20;99.90;;;;;;7394177;19;20093;-63
2022/05/20 03:59:16;;;;;;;13.32;9.10;;;12.00;99.90;;;;;;7391384;19;20011;-63
2022/05/20 04:02:01;;;;;;;12.23;9.23;;;12.40;99.90;;;;;;7389903;19;20022;-63
2022/05/20 04:04:33;;;;;;;14.88;8.73;;;12.20;99.90;;;;;;7391080;19;20074;-63
2022/05/20 04:07:04;;;;;;;14.40;9.57;;;12.40;99.90;;;;;;7392412;19;20013;-63
2022/05/20 04:09:33;;;;;;;13.65;9.13;;;12.20;99.90;;;;;;7392241;19;20015;-63
2022/05/20 04:12:04;;;;;;;12.05;9.10;;;12.30;99.90;;;;;;7389496;19;20039;-63
2022/05/20 04:14:36;;;;;;;12.10;9.63;;;12.20;99.90;;;;;;7391246;19;20335;-63
2022/05/20 04:17:06;;;;;;;12.50;9.43;;;12.50;99.90;;;;;;7391002;19;20123;-63
2022/05/20 04:19:36;;;;;;;12.32;9.45;;;12.30;99.90;;;;;;7393144;19;20011;-63
2022/05/20 04:22:10;;;;;;;13.10;9.13;;;12.20;99.90;;;;;;7395260;19;20035;-63
2022/05/20 04:24:40;;;;;;;13.77;9.40;;;12.20;99.90;;;;;;7396267;19;20027;-63
2022/05/20 04:27:09;;;;;;;14.52;9.57;;;12.40;99.90;;;;;;7401626;19;20010;-63
2022/05/20 04:29:40;;;;;;;12.75;9.25;;;12.00;99.90;;;;;;7398825;19;20014;-63
2022/05/20 04:32:12;;;;;;;13.68;9.93;;;12.20;99.90;;;;;;7400808;19;20379;-63
2022/05/20 04:34:41;;;;;;;17.13;10.27;;;12.20;99.90;;;;;;7398823;19;20021;-63
2022/05/20 04:37:10;;;;;;;15.43;10.20;;;12.20;99.90;;;;;;7401360;19;20018;-63
2022/05/20 04:39:39;;;;;;;13.15;9.40;;;12.20;99.90;;;;;;7398452;19;20014;-63
2022/05/20 04:47:47;;;;;;;16.20;9.63;;;12.30;99.90;;;;;;7393839;19;20014;-63
2022/05/20 04:50:17;;;;;;;14.88;10.40;;;12.30;99.90;;;;;;7399437;19;20021;-63
2022/05/20 04:52:46;;;;;;;18.90;10.90;;;12.00;99.90;;;;;;7398391;19;20010;-63
2022/05/20 04:55:12;;;;;;;15.52;10.00;;;;;;;;;;7397791;19;20075;-64
2022/05/20 04:57:46;;;;;;;18.58;10.55;;;12.20;99.90;;;;;;7398323;19;20533;-63
2022/05/20 05:00:21;;;;;;;15.13;10.35;;;12.00;99.90;;;;;;7396436;19;20027;-63
2022/05/20 05:02:51;;;;;;;14.60;10.60;;;12.20;99.90;;;;;;7397666;19;20029;-63
2022/05/20 05:05:22;;;;;;;17.75;10.52;;;12.20;99.90;;;;;;7396735;19;20505;-63
2022/05/20 05:07:54;;;;;;;14.20;10.10;;;12.30;99.90;;;;;;7398245;19;20018;-63
2022/05/20 05:10:25;;;;;;;16.98;10.77;;;12.20;99.90;;;;;;7399527;19;20035;-63
2022/05/20 05:12:54;;;;;;;17.70;10.93;;;12.40;99.90;;;;;;7401193;19;20011;-63
2022/05/20 05:15:26;;;;;;;16.10;10.82;;;12.10;99.90;;;;;;7394824;19;20021;-63
2022/05/20 05:20:36;;;;;;;22.48;10.75;;;12.10;99.90;;;;;;7394315;19;20014;-63
2022/05/20 05:23:06;;;;;;;20.55;11.05;;;12.10;99.90;;;;;;7400154;19;20023;-63
2022/05/20 05:25:37;;;;;;;17.85;10.63;;;12.30;99.90;;;;;;7398063;19;20892;-63
2022/05/20 05:28:07;;;;;;;18.38;12.00;;;12.40;99.90;;;;;;7395276;19;20043;-63
2022/05/20 05:30:42;;;;;;;19.58;11.63;;;12.40;99.90;;;;;;7373998;19;20014;-63
2022/05/20 05:33:12;;;;;;;24.50;11.57;;;12.50;99.90;;;;;;7392099;19;20553;-64
2022/05/20 05:35:41;;;;;;;23.55;12.50;;;12.40;99.90;;;;;;7396374;19;20017;-63
2022/05/20 05:38:11;;;;;;;23.58;12.30;;;12.40;99.90;;;;;;7394587;19;20049;-63
2022/05/20 05:40:41;;;;;;;23.85;12.18;;;12.30;99.90;;;;;;7398281;19;20013;-63
2022/05/20 05:43:10;;;;;;;22.90;12.38;;;12.50;99.90;;;;;;7396184;19;20019;-63
2022/05/20 05:45:42;;;;;;;20.15;11.52;;;12.50;99.90;;;;;;7397130;19;20499;-63
2022/05/20 05:48:12;;;;;;;17.98;11.32;;;12.60;99.90;;;;;;7394737;19;20466;-63
2022/05/20 05:50:43;;;;;;;17.90;10.90;;;12.70;99.90;;;;;;7248839;19;20014;-63
2022/05/20 05:53:14;;;;;;;21.50;12.35;;;12.70;99.90;;;;;;7395802;19;20039;-63
2022/05/20 05:55:46;;;;;;;17.50;10.68;;;12.50;99.90;;;;;;7394984;19;20086;-63
2022/05/20 05:58:16;;;;;;;18.48;11.23;;;12.40;99.90;;;;;;7398159;19;20070;-63
2022/05/20 06:00:47;;;;;;;18.95;11.23;;;12.60;99.90;;;;;;7393720;19;20018;-63
2022/05/20 06:03:17;;;;;;;20.85;11.52;;;12.70;99.90;;;;;;7396198;19;20361;-63
2022/05/20 06:05:46;;;;;;;19.77;11.65;;;12.60;99.90;;;;;;7398501;19;20018;-64
2022/05/20 06:08:16;;;;;;;18.20;12.10;;;12.60;99.90;;;;;;7395291;19;20019;-64
2022/05/20 06:10:46;;;;;;;28.70;12.32;;;12.80;99.90;;;;;;7397406;19;20482;-63
2022/05/20 06:13:15;;;;;;;17.42;12.25;;;12.90;99.90;;;;;;7396229;19;20085;-63
2022/05/20 06:15:47;;;;;;;21.42;13.05;;;13.00;99.90;;;;;;7390518;19;20533;-63
2022/05/20 06:18:16;;;;;;;22.42;12.13;;;12.70;99.90;;;;;;7393860;19;20358;-63
2022/05/20 06:20:45;;;;;;;21.75;13.20;;;13.00;99.90;;;;;;7398096;19;20018;-63
2022/05/20 06:23:14;;;;;;;20.48;11.82;;;13.10;99.90;;;;;;7395494;19;20027;-63
2022/05/20 06:25:43;;;;;;;19.30;12.32;;;13.10;99.90;;;;;;7396140;19;20015;-63
2022/05/20 06:28:15;;;;;;;22.65;12.65;;;13.20;99.90;;;;;;7395929;19;20015;-63
2022/05/20 06:30:48;;;;;;;18.48;11.85;;;13.30;99.90;;;;;;7394580;19;20015;-63
2022/05/20 06:33:18;;;;;;;21.17;12.32;;;13.30;99.90;;;;;;7394260;19;20377;-64
2022/05/20 06:41:09;;;;;;;18.88;11.02;;;13.40;99.90;;;;;;7392768;19;20015;-63
2022/05/20 06:43:38;;;;;;;19.88;10.35;;;13.60;99.90;;;;;;7394184;19;20010;-63
2022/05/20 06:46:10;;;;;;;23.95;11.82;;;13.40;99.90;;;;;;7394218;19;20016;-63
2022/05/20 06:48:45;;;;;;;21.85;12.77;;;13.40;99.90;;;;;;7393866;19;20123;-63
2022/05/20 06:51:17;;;;;;;16.80;10.70;;;13.60;99.90;;;;;;7396177;19;20025;-63
2022/05/20 06:53:46;;;;;;;19.08;11.00;;;13.70;99.90;;;;;;7394396;19;20250;-63
2022/05/20 06:56:16;;;;;;;15.90;10.30;;;13.80;99.90;;;;;;7390629;19;20026;-63
2022/05/20 06:58:46;;;;;;;18.52;9.13;;;13.80;99.90;;;;;;7394668;19;20042;-64
2022/05/20 07:01:18;;;;;;;13.68;8.05;;;13.90;99.90;;;;;;7394062;19;20017;-64
2022/05/20 07:03:47;;;;;;;13.32;7.88;;;14.00;99.90;;;;;;7397748;19;20350;-63
2022/05/20 07:06:17;;;;;;;13.98;7.43;;;14.00;99.90;;;;;;7393565;19;20015;-64
2022/05/20 07:08:48;;;;;;;12.38;7.25;;;14.00;99.90;;;;;;7394731;19;20015;-64
2022/05/20 07:11:18;;;;;;;13.85;8.07;;;14.20;99.90;;;;;;7393165;19;20033;-63
2022/05/20 07:13:47;;;;;;;14.52;8.57;;;14.20;99.90;;;;;;7395738;19;20070;-63
2022/05/20 07:16:19;;;;;;;12.90;7.28;;;14.30;99.90;;;;;;7389997;19;20039;-63
2022/05/20 07:18:49;;;;;;;12.63;7.45;;;14.20;99.90;;;;;;7393408;19;20014;-63
2022/05/20 07:21:18;;;;;;;15.05;7.35;;;14.30;99.90;;;;;;7391634;19;20017;-63
2022/05/20 07:23:47;;;;;;;9.55;7.07;;;14.30;99.90;;;;;;7393318;19;20086;-63
2022/05/20 07:26:18;;;;;;;12.65;6.90;;;14.20;99.90;;;;;;7394551;19;20014;-63
2022/05/20 07:28:48;;;;;;;10.70;7.00;;;14.20;99.90;;;;;;7395149;19;20014;-63
2022/05/20 07:31:23;;;;;;;10.25;6.00;;;14.30;99.90;;;;;;7391999;19;20107;-64
2022/05/20 07:33:54;;;;;;;11.02;6.25;;;14.20;99.90;;;;;;7394302;19;20035;-63
2022/05/20 07:36:23;;;;;;;10.80;6.95;;;14.30;99.90;;;;;;7390741;19;20031;-63
2022/05/20 07:38:52;;;;;;;11.23;7.03;;;14.30;99.90;;;;;;7394826;19;20018;-63
2022/05/20 07:41:23;;;;;;;11.75;6.47;;;14.00;99.90;;;;;;7390556;19;20011;-63
2022/05/20 07:43:52;;;;;;;11.38;6.47;;;14.30;99.90;;;;;;7394166;19;20014;-63
2022/05/20 07:46:24;;;;;;;9.30;5.05;;;14.10;99.90;;;;;;7393403;19;20019;-63
2022/05/20 07:48:52;;;;;;;9.20;5.95;;;14.00;99.90;;;;;;7391962;19;20027;-63
2022/05/20 07:51:24;;;;;;;10.85;6.22;;;14.10;99.90;;;;;;7393653;19;20014;-63
2022/05/20 07:53:57;;;;;;;7.35;5.72;;;14.20;99.90;;;;;;7397081;19;20505;-63
2022/05/20 07:56:28;;;;;;;8.20;5.15;;;14.40;99.90;;;;;;7391911;19;20494;-63
2022/05/20 07:59:03;;;;;;;9.32;5.75;;;14.30;99.90;;;;;;7396326;19;20077;-63
2022/05/20 08:01:38;;;;;;;7.97;5.53;;;14.50;99.90;;;;;;7396374;19;20018;-63
2022/05/20 08:06:51;;;;;;;10.55;5.78;;;14.50;99.90;;;;;;7399645;19;20344;-64
2022/05/20 08:09:20;;;;;;;10.30;6.40;;;14.60;99.90;;;;;;7400399;19;20019;-63
2022/05/20 08:11:50;;;;;;;10.25;5.65;;;14.70;99.90;;;;;;7400669;19;20349;-63
2022/05/20 08:14:18;;;;;;;7.50;4.82;;;14.70;99.90;;;;;;7396689;19;20056;-63
2022/05/20 08:16:50;;;;;;;10.90;5.75;;;14.70;99.90;;;;;;7398941;19;20014;-63
2022/05/20 08:19:19;;;;;;;10.57;5.55;;;14.70;99.90;;;;;;7401138;19;20470;-63
2022/05/20 08:21:48;;;;;;;14.55;5.55;;;14.70;99.90;;;;;;7399594;19;20022;-64
2022/05/20 08:24:17;;;;;;;6.43;4.53;;;14.80;99.90;;;;;;7398372;19;20026;-64
2022/05/20 08:26:46;;;;;;;7.82;4.80;;;14.80;99.90;;;;;;7398154;19;20018;-63
2022/05/20 08:29:16;;;;;;;10.13;4.85;;;14.60;99.90;;;;;;7401773;19;20015;-63
2022/05/20 08:31:46;;;;;;;10.63;5.30;;;14.60;99.90;;;;;;7398411;19;20035;-64
2022/05/20 08:34:18;;;;;;;7.55;5.05;;;14.40;99.90;;;;;;7396012;19;20023;-63
2022/05/20 08:36:47;;;;;;;8.23;4.13;;;14.60;99.90;;;;;;7398163;19;20027;-63
2022/05/20 08:39:16;;;;;;;8.35;4.32;;;15.00;99.90;;;;;;7398063;19;20015;-63
2022/05/20 08:41:49;;;;;;;9.25;4.72;;;15.00;99.90;;;;;;7396243;19;20412;-63
2022/05/20 08:44:21;;;;;;;8.25;4.50;;;15.30;99.90;;;;;;7398064;19;20026;-63
2022/05/20 08:46:51;;;;;;;8.48;4.30;;;15.20;99.90;;;;;;7398826;19;20017;-64
2022/05/20 08:49:27;;;;;;;7.63;4.25;;;15.30;99.90;;;;;;7398333;19;20037;-63
2022/05/20 08:52:00;;;;;;;6.97;4.03;;;15.40;99.90;;;;;;7399183;19;20529;-63
2022/05/20 08:54:29;;;;;;;5.90;4.53;;;15.60;99.90;;;;;;7395199;19;20022;-63
2022/05/20 08:56:58;;;;;;;7.80;4.35;;;16.00;99.90;;;;;;7398784;19;20359;-63
2022/05/20 08:59:28;;;;;;;7.18;4.45;;;15.80;99.90;;;;;;7397225;19;20473;-64
2022/05/20 09:01:57;;;;;;;9.63;4.50;;;15.70;99.90;;;;;;7395934;19;20023;-63
2022/05/20 09:04:29;;;;;;;7.72;4.38;;;15.70;99.90;;;;;;7394949;19;20018;-63
2022/05/20 09:07:04;;;;;;;8.32;5.00;;;15.70;99.90;;;;;;7395908;19;20059;-63
2022/05/20 09:09:45;;;;;;;9.00;6.18;;;15.50;99.90;;;;;;7395997;19;20521;-64
2022/05/20 09:12:28;;;;;;;7.75;5.45;;;15.60;99.90;;;;;;7398155;19;20022;-63
2022/05/20 09:17:46;;;;;;;9.20;4.43;;;15.60;99.90;;;;;;7395348;19;20021;-63
2022/05/20 09:20:20;;;;;;;8.63;4.90;;;15.70;99.90;;;;;;7396017;19;20007;-63
2022/05/20 09:22:59;;;;;;;7.22;4.78;;;15.50;99.90;;;;;;7397966;19;20474;-63
2022/05/20 09:25:32;;;;;;;8.57;5.70;;;15.50;99.90;;;;;;7390896;19;20032;-63
2022/05/20 09:28:30;;;;;;;8.23;6.00;;;15.90;99.90;;;;;;7399089;19;20588;-63
2022/05/20 09:31:08;;;;;;;7.60;5.70;;;15.90;99.90;;;;;;7252394;19;20018;-63
2022/05/20 09:33:39;;;;;;;7.82;5.30;;;16.20;99.90;;;;;;7396887;19;20425;-63
2022/05/20 09:36:11;;;;;;;8.50;5.07;;;16.00;99.90;;;;;;7398766;19;20010;-63
2022/05/20 09:38:43;;;;;;;8.95;5.32;;;16.10;99.90;;;;;;7400935;19;20011;-62
2022/05/20 09:41:21;;;;;;;9.52;4.90;;;16.30;99.90;;;;;;7394011;19;20018;-62
2022/05/20 09:44:02;;;;;;;8.98;4.68;;;16.80;99.90;;;;;;7398147;19;20021;-62
2022/05/20 09:46:35;;;;;;;7.30;5.35;;;16.60;99.90;;;;;;7397143;19;20466;-63
2022/05/20 09:49:08;;;;;;;9.25;5.32;;;16.60;99.90;;;;;;7393841;19;20010;-63
2022/05/20 09:51:44;;;;;;;6.68;4.40;;;16.70;99.90;;;;;;7395096;19;20022;-62
2022/05/20 09:54:22;;;;;;;7.55;4.95;;;16.80;99.90;;;;;;7394703;19;20018;-62
2022/05/20 09:57:01;;;;;;;9.40;6.05;;;16.80;99.90;;;;;;7396529;19;20078;-63
2022/05/20 09:59:39;;;;;;;9.13;5.53;;;16.80;99.90;;;;;;7395455;19;20026;-63
2022/05/20 10:02:17;;;;;;;7.78;5.30;;;16.90;99.90;;;;;;7393202;19;20026;-63
2022/05/20 10:04:57;;;;;;;7.40;5.68;;;17.00;99.90;;;;;;7394360;19;20022;-62
2022/05/20 10:07:42;;;;;;;7.95;5.75;;;17.20;99.90;;;;;;7395399;19;20018;-63
2022/05/20 10:10:17;;;;;;;10.40;5.90;;;17.20;99.90;;;;;;7396045;19;20019;-63
2022/05/20 10:12:52;;;;;;;7.53;4.93;;;17.30;99.90;;;;;;7396669;19;20022;-63
2022/05/20 10:15:25;;;;;;;9.05;4.78;;;17.40;99.90;;;;;;7394644;19;20479;-63
2022/05/20 10:18:08;;;;;;;6.40;4.60;;;17.40;99.90;;;;;;7372188;19;20070;-63
2022/05/20 10:20:42;;;;;;;9.05;5.07;;;17.50;99.90;;;;;;7395481;19;20011;-63
2022/05/20 10:23:22;;;;;;;7.20;4.78;;;17.50;99.90;;;;;;7395551;19;20035;-63
2022/05/20 10:26:00;;;;;;;9.18;4.78;;;17.40;99.90;;;;;;7396822;19;20355;-63
2022/05/20 10:34:07;;;;;;;7.40;5.57;;;17.60;99.90;;;;;;7393520;19;20116;-63
2022/05/20 10:36:47;;;;;;;7.78;6.00;;;17.80;99.90;;;;;;7393678;19;20006;-63
2022/05/20 10:39:36;;;;;;;10.10;5.68;;;17.50;99.90;;;;;;7394715;19;20415;-64
2022/05/20 10:42:19;;;;;;;7.38;5.43;;;17.80;99.90;;;;;;7393073;19;20121;-63
2022/05/20 10:50:57;;;;;;;8.27;5.95;;;18.10;99.90;;;;;;7396827;19;20109;-63
2022/05/20 10:53:47;;;;;;;8.00;5.32;;;17.80;99.90;;;;;;7363034;19;20095;-63
2022/05/20 10:56:34;;;;;;;8.43;6.18;;;18.00;99.90;;;;;;7396746;19;20052;-63
2022/05/20 10:59:26;;;;;;;8.18;6.40;;;18.00;99.90;;;;;;7393567;19;20031;-63
2022/05/20 11:02:11;;;;;;;9.93;6.55;;;18.20;99.90;;;;;;7392262;19;20078;-63
2022/05/20 11:04:58;;;;;;;10.68;6.00;;;18.40;99.90;;;;;;7392814;19;20018;-63
2022/05/20 11:07:40;;;;;;;7.90;5.97;;;18.20;99.90;;;;;;7396313;19;20580;-63
2022/05/20 11:10:28;;;;;;;7.90;5.47;;;18.40;99.90;;;;;;7393660;19;20018;-64
2022/05/20 11:13:12;;;;;;;7.63;5.93;;;18.70;99.90;;;;;;7392050;19;20485;-67
2022/05/20 11:16:02;;;;;;;7.07;4.78;;;18.50;99.90;;;;;;7390068;19;20014;-65
2022/05/20 11:18:58;;;;;;;5.53;4.07;;;18.70;99.90;;;;;;7391290;19;20014;-65
2022/05/20 11:21:58;;;;;;;6.53;4.90;;;18.80;99.90;;;;;;7394276;19;20011;-65
2022/05/20 11:24:43;;;;;;;6.72;4.90;;;18.90;99.90;;;;;;7393815;19;20023;-65
2022/05/20 11:27:29;;;;;;;7.72;5.78;;;17.70;99.90;;;;;;7389127;19;20018;-65
2022/05/20 11:30:28;;;;;;;6.72;5.30;;;19.20;99.90;;;;;;7393733;19;20357;-64
2022/05/20 11:33:09;;;;;;;;;;;19.70;99.40;;;;;;7400146;19;20485;-66
2022/05/20 11:36:15;;;;;;;8.23;5.85;;;19.50;99.20;;;;;;7396357;19;19934;-66
2022/05/20 11:39:26;;;;;;;7.10;5.07;;;19.90;98.90;;;;;;7404090;19;20010;-66
2022/05/20 11:42:12;;;;;;;5.32;4.20;;;19.70;99.40;;;;;;7402287;19;20019;-67
2022/05/20 11:44:55;;;;;;;8.45;5.65;;;20.00;99.50;;;;;;7391251;19;20469;-65
2022/05/20 11:47:53;;;;;;;7.68;6.28;;;19.90;99.20;;;;;;7397176;19;20038;-64
2022/05/20 11:50:51;;;;;;;9.32;5.93;;;20.10;98.60;;;;;;7398918;19;20077;-64
2022/05/20 11:53:29;;;;;;;6.63;5.68;;;20.30;98.50;;;;;;7402354;19;20014;-65
2022/05/20 11:56:06;;;;;;;6.70;5.30;;;20.40;98.90;;;;;;7396875;19;20344;-64
2022/05/20 11:58:43;;;;;;;7.22;4.93;;;20.40;98.70;;;;;;7400955;19;20014;-65
2022/05/20 12:01:13;;;;;;;7.10;5.10;;;20.60;97.90;;;;;;7397907;19;20014;-65
2022/05/20 12:06:30;;;;;;;6.95;4.50;;;20.90;97.20;;;;;;7401038;19;20025;-65
2022/05/20 12:09:01;;;;;;;7.15;4.60;;;20.70;97.00;;;;;;7398558;19;20010;-65
2022/05/20 12:11:35;;;;;;;5.97;4.68;;;20.60;97.10;;;;;;7402201;19;20086;-65
2022/05/20 12:14:10;;;;;;;6.63;4.47;;;20.90;97.30;;;;;;7387120;19;20074;-65
2022/05/20 12:16:57;;;;;;;5.68;4.15;;;20.90;95.60;;;;;;7396250;19;20010;-66
2022/05/20 12:25:34;;;;;;;11.57;4.93;;;21.20;96.40;;;;;;7400145;19;20015;-68
2022/05/20 12:28:10;;;;;;;6.43;4.70;;;21.40;95.60;;;;;;7397564;19;20386;-66
2022/05/20 12:30:42;;;;;;;6.20;3.70;;;21.50;95.50;;;;;;7399073;19;20028;-67
2022/05/20 12:33:26;;;;;;;5.30;4.60;;;21.50;95.60;;;;;;7393958;19;20360;-65
2022/05/20 12:36:24;;;;;;;6.38;4.35;;;21.50;94.50;;;;;;7398703;19;20442;-67
2022/05/20 12:39:14;;;;;;;6.47;5.00;;;21.20;93.80;;;;;;7397549;19;20019;-65
2022/05/20 12:41:45;;;;;;;7.03;4.40;;;21.10;93.30;;;;;;7397514;19;20034;-64
2022/05/20 12:44:36;;;;;;;6.22;4.15;;;20.90;94.90;;;;;;7398229;19;20324;-64
2022/05/20 12:47:16;;;;;;;6.47;4.28;;;20.90;95.20;;;;;;7392357;19;20014;-64
2022/05/20 12:49:56;;;;;;;5.60;4.20;;;20.80;95.40;;;;;;7397430;19;20567;-65
2022/05/20 12:52:31;;;;;;;4.22;3.33;;;20.70;95.30;;;;;;7402697;19;20018;-65
2022/05/20 12:55:01;;;;;;;6.25;3.10;;;20.70;94.70;;;;;;7397168;19;20387;-65
2022/05/20 12:57:33;;;;;;;4.95;3.03;;;20.60;92.30;;;;;;7397488;19;20019;-65
2022/05/20 13:00:06;;;;;;;3.50;2.70;;;20.50;92.50;;;;;;7398956;19;20350;-65
2022/05/20 13:02:38;;;;;;;3.88;2.70;;;20.50;90.40;;;;;;7400327;19;20382;-65
2022/05/20 13:05:09;;;;;;;4.45;3.30;;;20.50;87.30;;;;;;7397066;19;20480;-65
2022/05/20 13:07:42;;;;;;;4.22;3.20;;;20.50;89.50;;;;;;7398933;19;20070;-66
2022/05/20 13:10:29;;;;;;;5.22;3.35;;;20.50;92.20;;;;;;7397269;19;20018;-65
2022/05/20 13:13:02;;;;;;;5.72;4.10;;;20.50;92.90;;;;;;7397435;19;20018;-65
2022/05/20 13:15:31;;;;;;;5.82;3.65;;;20.40;94.40;;;;;;7396943;19;20349;-66
2022/05/20 13:18:04;;;;;;;4.43;3.33;;;20.30;95.20;;;;;;7396005;19;20030;-66
2022/05/20 13:20:38;;;;;;;5.07;3.92;;;20.20;95.10;;;;;;7397015;19;20015;-65
2022/05/20 13:23:11;;;;;;;6.28;3.78;;;20.20;95.50;;;;;;7397685;19;20018;-65
2022/05/20 13:25:46;;;;;;;6.00;3.40;;;20.00;95.90;;;;;;7397103;19;20357;-65
2022/05/20 13:28:24;;;;;;;4.43;3.13;;;20.10;96.20;;;;;;7398373;19;20289;-65
2022/05/20 13:31:01;;;;;;;4.90;3.33;;;20.00;96.90;;;;;;7397942;19;20093;-66
2022/05/20 13:33:30;;;;;;;5.63;3.72;;;19.80;97.00;;;;;;7398468;19;20360;-65
2022/05/20 13:36:02;;;;;;;6.72;3.85;;;19.70;97.20;;;;;;7394734;19;20077;-66
2022/05/20 13:38:36;;;;;;;5.47;4.25;;;19.60;97.60;;;;;;7399142;19;20015;-66
2022/05/20 13:41:09;;;;;;;5.57;4.17;;;19.60;98.30;;;;;;7400597;19;20029;-66
2022/05/20 13:43:41;;;;;;;6.15;3.95;;;19.40;98.10;;;;;;7394298;19;20270;-65
2022/05/20 13:51:50;;;;;;;5.70;4.50;;;18.90;98.20;;;;;;7396598;19;20035;-66
2022/05/20 13:54:28;;;;;;;4.50;4.10;;;19.10;99.00;;;;;;7396316;19;20011;-65
2022/05/20 13:56:58;;;;;;;7.25;4.70;;;19.10;98.70;;;;;;7394836;19;20085;-65
2022/05/20 13:59:36;;;;;;;7.63;4.20;;;19.00;99.10;;;;;;7397781;19;20010;-66
2022/05/20 14:02:13;;;;;;;4.95;3.75;;;18.80;99.00;;;;;;7395320;19;20505;-65
2022/05/20 14:04:45;;;;;;;5.43;3.92;;;18.80;99.10;;;;;;7395452;19;20038;-65
2022/05/20 14:07:24;;;;;;;8.23;4.35;;;18.80;99.30;;;;;;7395733;19;20017;-65
2022/05/20 14:09:59;;;;;;;4.70;4.18;;;18.70;99.90;;;;;;7395447;19;20003;-65